createdAt,value
2022-10-25T00:01:51.439Z,2.10
2022-10-25T00:04:18.241Z,1.87
2022-10-25T00:06:44.984Z,1.20
2022-10-25T00:09:11.661Z,1.30
2022-10-25T00:11:38.247Z,1.53
2022-10-25T00:14:06.949Z,3.00
2022-10-25T00:16:36.644Z,4.60
2022-10-25T00:19:04.876Z,4.90
2022-10-25T00:21:31.749Z,4.30
2022-10-25T00:23:58.373Z,3.60
2022-10-25T00:26:25.011Z,2.23
2022-10-25T00:28:54.320Z,2.70
2022-10-25T00:35:36.219Z,1.20
2022-10-25T00:38:02.879Z,1.10
2022-10-25T00:40:29.516Z,2.03
2022-10-25T00:42:56.142Z,1.47
2022-10-25T00:45:27.787Z,1.47
2022-10-25T00:52:20.357Z,1.10
2022-10-25T00:54:51.080Z,1.60
2022-10-25T00:57:23.510Z,2.30
2022-10-25T00:59:50.836Z,1.77
2022-10-25T01:02:19.505Z,1.40
2022-10-25T01:04:46.375Z,1.67
2022-10-25T01:07:12.960Z,1.47
2022-10-25T01:09:40.471Z,1.50
2022-10-25T01:12:07.214Z,0.93
2022-10-25T01:14:41.000Z,1.33
2022-10-25T01:17:20.009Z,1.40
2022-10-25T01:20:01.727Z,1.23
2022-10-25T01:22:56.430Z,1.70
2022-10-25T01:25:29.074Z,1.47
2022-10-25T01:30:55.090Z,1.90
2022-10-25T01:33:36.833Z,1.17
2022-10-25T01:36:49.924Z,1.17
2022-10-25T01:39:36.506Z,1.33
2022-10-25T01:42:22.537Z,1.30
2022-10-25T01:44:59.204Z,1.40
2022-10-25T01:47:29.220Z,1.00
2022-10-25T01:50:30.332Z,1.23
2022-10-25T01:52:57.032Z,1.17
2022-10-25T01:55:34.907Z,1.53
2022-10-25T01:58:17.084Z,2.37
2022-10-25T02:01:39.452Z,1.37
2022-10-25T02:04:13.153Z,1.37
2022-10-25T02:06:39.705Z,1.30
2022-10-25T02:09:13.049Z,1.10
2022-10-25T02:11:39.958Z,1.00
2022-10-25T02:14:29.944Z,1.37
2022-10-25T02:17:03.092Z,1.40
2022-10-25T02:19:33.903Z,1.57
2022-10-25T02:22:02.707Z,1.40
2022-10-25T02:24:31.999Z,1.30
2022-10-25T02:27:00.114Z,1.00
2022-10-25T02:29:30.204Z,1.60
2022-10-25T02:31:57.120Z,1.40
2022-10-25T02:34:24.305Z,1.87
2022-10-25T02:36:53.248Z,1.03
2022-10-25T02:39:22.073Z,1.20
2022-10-25T02:41:48.615Z,1.60
2022-10-25T02:44:15.233Z,1.10
2022-10-25T02:46:42.247Z,1.20
2022-10-25T02:49:08.872Z,1.17
2022-10-25T02:51:35.468Z,1.80
2022-10-25T02:54:02.085Z,1.10
2022-10-25T02:56:28.717Z,2.00
2022-10-25T02:58:56.729Z,2.00
2022-10-25T03:01:25.007Z,1.43
2022-10-25T03:03:51.748Z,1.77
2022-10-25T03:06:19.044Z,1.30
2022-10-25T03:08:46.310Z,1.60
2022-10-25T03:11:14.092Z,1.00
2022-10-25T03:13:40.698Z,1.10
2022-10-25T03:16:07.770Z,1.67
2022-10-25T03:18:34.381Z,1.23
2022-10-25T03:21:02.817Z,1.10
2022-10-25T03:23:30.364Z,1.20
2022-10-25T03:25:58.860Z,1.23
2022-10-25T03:28:27.429Z,1.27
2022-10-25T03:30:55.215Z,1.10
2022-10-25T03:33:22.336Z,1.20
2022-10-25T03:35:53.406Z,1.00
2022-10-25T03:38:20.182Z,1.23
2022-10-25T03:40:46.926Z,1.30
2022-10-25T03:43:13.774Z,1.43
2022-10-25T03:45:40.367Z,1.07
2022-10-25T03:48:07.180Z,1.30
2022-10-25T03:50:33.845Z,1.60
2022-10-25T03:53:00.479Z,1.53
2022-10-25T03:55:27.227Z,1.30
2022-10-25T03:57:53.781Z,1.20
2022-10-25T04:00:20.418Z,1.20
2022-10-25T04:02:47.189Z,1.20
2022-10-25T04:05:13.844Z,1.43
2022-10-25T04:07:40.399Z,1.33
2022-10-25T04:10:07.498Z,2.43
2022-10-25T04:12:34.321Z,1.67
2022-10-25T04:15:00.925Z,1.57
2022-10-25T04:17:27.589Z,1.60
2022-10-25T04:19:54.315Z,1.63
2022-10-25T04:22:20.961Z,1.60
2022-10-25T04:24:47.582Z,1.67
2022-10-25T04:27:14.203Z,1.70
2022-10-25T04:29:40.749Z,1.80
2022-10-25T04:32:07.440Z,1.27
2022-10-25T04:34:34.105Z,1.93
2022-10-25T04:37:00.739Z,1.73
2022-10-25T04:39:27.315Z,1.80
2022-10-25T04:41:53.905Z,2.10
2022-10-25T04:44:20.501Z,1.80
2022-10-25T04:46:48.864Z,1.50
2022-10-25T04:49:16.156Z,1.57
2022-10-25T04:51:42.869Z,2.20
2022-10-25T04:54:11.448Z,1.77
2022-10-25T04:56:38.178Z,2.20
2022-10-25T04:59:05.102Z,1.60
2022-10-25T05:01:31.805Z,1.97
2022-10-25T05:03:58.497Z,1.63
2022-10-25T05:06:32.019Z,1.50
2022-10-25T05:08:58.616Z,1.50
2022-10-25T05:11:25.977Z,1.73
2022-10-25T05:13:52.609Z,1.93
2022-10-25T05:16:23.432Z,2.00
2022-10-25T05:18:51.719Z,1.53
2022-10-25T05:21:18.716Z,2.07
2022-10-25T05:23:46.113Z,1.97
2022-10-25T05:26:15.267Z,1.83
2022-10-25T05:28:43.158Z,2.37
2022-10-25T05:31:18.972Z,1.77
2022-10-25T05:33:48.202Z,1.83
2022-10-25T05:36:15.748Z,1.80
2022-10-25T05:38:42.632Z,1.60
2022-10-25T05:41:11.462Z,1.87
2022-10-25T05:43:38.093Z,1.90
2022-10-25T05:46:08.509Z,2.30
2022-10-25T05:48:36.450Z,1.83
2022-10-25T05:51:32.343Z,2.67
2022-10-25T05:54:02.555Z,2.20
2022-10-25T05:56:30.701Z,2.20
2022-10-25T05:58:57.399Z,2.00
2022-10-25T06:01:26.702Z,2.33
2022-10-25T06:03:55.096Z,2.10
2022-10-25T06:06:23.473Z,2.00
2022-10-25T06:08:55.071Z,2.37
2022-10-25T06:11:21.674Z,2.90
2022-10-25T06:13:48.251Z,2.90
2022-10-25T06:16:17.403Z,3.50
2022-10-25T06:18:44.267Z,3.00
2022-10-25T06:21:12.044Z,3.90
2022-10-25T06:23:39.132Z,3.27
2022-10-25T06:26:11.965Z,2.87
2022-10-25T06:28:39.274Z,3.90
2022-10-25T06:31:08.511Z,4.57
2022-10-25T06:33:35.773Z,4.70
2022-10-25T06:36:04.183Z,3.53
2022-10-25T06:38:31.354Z,3.27
2022-10-25T06:41:02.896Z,3.00
2022-10-25T06:43:30.385Z,3.77
2022-10-25T06:45:57.217Z,3.50
2022-10-25T06:48:24.174Z,4.47
2022-10-25T06:51:05.173Z,4.40
2022-10-25T06:53:32.570Z,2.83
2022-10-25T06:56:04.928Z,2.90
2022-10-25T06:58:33.797Z,2.83
2022-10-25T07:01:08.815Z,2.00
2022-10-25T07:03:35.488Z,3.77
2022-10-25T07:06:09.501Z,2.93
2022-10-25T07:08:38.193Z,3.40
2022-10-25T07:11:05.586Z,2.43
2022-10-25T07:13:34.189Z,2.47
2022-10-25T07:16:02.596Z,2.27
2022-10-25T07:18:30.505Z,2.17
2022-10-25T07:21:10.401Z,2.07
2022-10-25T07:23:42.494Z,2.33
2022-10-25T07:26:15.994Z,2.40
2022-10-25T07:28:44.560Z,1.70
2022-10-25T07:31:36.088Z,2.20
2022-10-25T07:34:04.412Z,2.00
2022-10-25T07:36:31.065Z,2.43
2022-10-25T07:38:57.904Z,1.70
2022-10-25T07:41:25.314Z,1.83
2022-10-25T07:43:52.093Z,1.90
2022-10-25T07:46:18.745Z,1.80
2022-10-25T07:48:45.379Z,2.40
2022-10-25T07:51:14.187Z,2.20
2022-10-25T07:53:41.389Z,2.37
2022-10-25T07:56:16.206Z,2.13
2022-10-25T07:58:45.962Z,2.03
2022-10-25T08:01:17.882Z,2.60
2022-10-25T08:03:44.496Z,2.50
2022-10-25T08:06:11.134Z,1.93
2022-10-25T08:08:37.744Z,2.47
2022-10-25T08:11:08.081Z,2.03
2022-10-25T08:13:38.995Z,2.37
2022-10-25T08:16:06.682Z,3.47
2022-10-25T08:18:34.284Z,2.33
2022-10-25T08:21:03.589Z,2.57
2022-10-25T08:23:32.083Z,2.70
2022-10-25T08:25:59.669Z,2.30
2022-10-25T08:28:26.332Z,2.30
2022-10-25T08:30:54.704Z,2.30
2022-10-25T08:33:21.339Z,3.17
2022-10-25T08:35:47.982Z,2.60
2022-10-25T08:38:14.581Z,2.20
2022-10-25T08:40:57.105Z,4.23
2022-10-25T08:44:06.269Z,2.93
2022-10-25T08:46:34.618Z,2.40
2022-10-25T08:49:18.260Z,2.60
2022-10-25T08:51:47.577Z,2.40
2022-10-25T08:54:26.669Z,2.20
2022-10-25T08:57:15.005Z,2.70
2022-10-25T08:59:45.562Z,1.87
2022-10-25T09:02:57.574Z,1.80
2022-10-25T09:05:41.021Z,1.70
2022-10-25T09:08:10.510Z,2.50
2022-10-25T09:11:06.475Z,1.67
2022-10-25T09:13:40.987Z,2.40
2022-10-25T09:16:18.320Z,2.23
2022-10-25T09:18:55.231Z,3.57
2022-10-25T09:21:38.771Z,1.93
2022-10-25T09:24:39.737Z,2.00
2022-10-25T09:27:19.926Z,2.23
2022-10-25T09:29:51.053Z,1.90
2022-10-25T09:32:23.859Z,2.00
2022-10-25T09:34:53.078Z,2.13
2022-10-25T09:37:27.183Z,2.47
2022-10-25T09:39:59.792Z,1.27
2022-10-25T09:42:34.025Z,1.53
2022-10-25T09:45:28.880Z,1.90
2022-10-25T09:48:01.575Z,1.73
2022-10-25T09:50:32.298Z,1.60
2022-10-25T09:53:15.616Z,1.30
2022-10-25T09:55:56.909Z,1.73
2022-10-25T09:58:23.477Z,2.10
2022-10-25T10:00:52.215Z,1.63
2022-10-25T10:03:20.622Z,1.87
2022-10-25T10:05:55.188Z,1.90
2022-10-25T10:08:22.120Z,2.40
2022-10-25T10:10:53.485Z,2.00
2022-10-25T10:13:41.756Z,1.40
2022-10-25T10:16:23.700Z,1.77
2022-10-25T10:18:50.326Z,1.90
2022-10-25T10:21:22.136Z,2.43
2022-10-25T10:23:51.841Z,2.70
2022-10-25T10:26:33.813Z,2.40
2022-10-25T10:29:34.851Z,2.23
2022-10-25T10:32:05.226Z,2.03
2022-10-25T10:34:33.290Z,2.00
2022-10-25T10:37:17.973Z,1.37
2022-10-25T10:39:55.834Z,1.77
2022-10-25T10:45:08.261Z,2.40
2022-10-25T10:47:38.036Z,1.93
2022-10-25T10:50:30.371Z,1.70
2022-10-25T10:53:07.334Z,2.20
2022-10-25T10:55:35.710Z,3.27
2022-10-25T10:58:32.817Z,2.50
2022-10-25T11:01:02.654Z,2.23
2022-10-25T11:03:49.191Z,1.60
2022-10-25T11:06:33.307Z,1.70
2022-10-25T11:09:12.627Z,1.40
2022-10-25T11:11:40.233Z,2.13
2022-10-25T11:14:15.371Z,1.60
2022-10-25T11:17:03.667Z,1.57
2022-10-25T11:19:59.727Z,1.43
2022-10-25T11:22:48.316Z,2.70
2022-10-25T11:25:28.444Z,1.50
2022-10-25T11:28:13.781Z,1.53
2022-10-25T11:30:57.616Z,3.10
2022-10-25T11:33:31.951Z,1.50
2022-10-25T11:36:07.818Z,2.33
2022-10-25T11:39:01.992Z,2.10
2022-10-25T11:41:47.527Z,1.70
2022-10-25T11:44:23.158Z,2.17
2022-10-25T11:47:08.501Z,2.20
2022-10-25T11:49:38.142Z,1.80
2022-10-25T11:52:24.062Z,1.73
2022-10-25T11:55:09.469Z,2.03
2022-10-25T11:58:06.999Z,2.00
2022-10-25T12:01:12.893Z,1.63
2022-10-25T12:03:49.527Z,1.73
2022-10-25T12:06:45.619Z,1.83
2022-10-25T12:09:54.220Z,2.20
2022-10-25T12:12:26.609Z,1.73
2022-10-25T12:14:57.993Z,1.77
2022-10-25T12:17:33.951Z,1.53
2022-10-25T12:20:11.290Z,2.23
2022-10-25T12:22:45.686Z,2.60
2022-10-25T12:25:26.305Z,1.60
2022-10-25T12:28:00.874Z,1.60
2022-10-25T12:30:28.559Z,1.83
2022-10-25T12:33:09.673Z,1.50
2022-10-25T12:35:43.602Z,1.40
2022-10-25T12:38:21.860Z,2.30
2022-10-25T12:40:50.625Z,1.20
2022-10-25T12:43:48.132Z,2.20
2022-10-25T12:46:32.585Z,1.33
2022-10-25T12:49:28.513Z,1.53
2022-10-25T12:52:15.610Z,1.63
2022-10-25T12:54:55.209Z,1.33
2022-10-25T12:57:49.343Z,1.40
2022-10-25T13:00:22.545Z,1.80
2022-10-25T13:03:04.261Z,1.30
2022-10-25T13:05:55.399Z,1.60
2022-10-25T13:08:24.468Z,1.93
2022-10-25T13:11:02.912Z,1.97
2022-10-25T13:13:33.727Z,1.63
2022-10-25T13:16:04.609Z,1.67
2022-10-25T13:18:34.259Z,1.30
2022-10-25T13:21:02.485Z,1.53
2022-10-25T13:23:58.454Z,1.70
2022-10-25T13:26:28.307Z,1.20
2022-10-25T13:28:57.353Z,1.77
2022-10-25T13:31:36.190Z,1.67
2022-10-25T13:34:12.032Z,1.50
2022-10-25T13:36:53.862Z,1.40
2022-10-25T13:39:26.624Z,1.50
2022-10-25T13:42:07.868Z,1.67
2022-10-25T13:44:37.497Z,1.50
2022-10-25T13:47:04.335Z,1.67
2022-10-25T13:49:40.422Z,1.80
2022-10-25T13:52:26.139Z,1.93
2022-10-25T13:54:57.093Z,1.50
2022-10-25T13:57:45.433Z,1.70
2022-10-25T14:00:53.671Z,1.20
2022-10-25T14:03:47.354Z,1.00
2022-10-25T14:06:34.132Z,1.20
2022-10-25T14:09:27.985Z,1.10
2022-10-25T14:12:06.569Z,1.17
2022-10-25T14:14:55.895Z,0.90
2022-10-25T14:17:41.551Z,1.17
2022-10-25T14:20:19.183Z,1.10
2022-10-25T14:22:57.897Z,1.40
2022-10-25T14:25:31.879Z,1.20
2022-10-25T14:28:07.101Z,1.87
2022-10-25T14:30:55.385Z,1.17
2022-10-25T14:33:33.824Z,1.50
2022-10-25T14:36:05.285Z,1.43
2022-10-25T14:38:36.515Z,1.37
2022-10-25T14:41:11.679Z,1.20
2022-10-25T14:43:39.237Z,1.40
2022-10-25T14:46:05.779Z,1.50
2022-10-25T14:48:40.742Z,1.93
2022-10-25T14:51:14.532Z,1.20
2022-10-25T14:53:54.207Z,1.40
2022-10-25T14:56:25.829Z,1.90
2022-10-25T14:58:52.950Z,1.77
2022-10-25T15:01:22.305Z,1.33
2022-10-25T15:03:52.437Z,1.70
2022-10-25T15:06:24.378Z,1.80
2022-10-25T15:09:16.281Z,2.20
2022-10-25T15:12:22.843Z,1.20
2022-10-25T15:14:49.463Z,1.27
2022-10-25T15:17:19.022Z,1.97
2022-10-25T15:20:22.784Z,1.33
2022-10-25T15:22:50.695Z,1.33
2022-10-25T15:25:24.048Z,1.60
2022-10-25T15:27:54.624Z,2.27
2022-10-25T15:30:35.238Z,1.50
2022-10-25T15:33:02.886Z,1.77
2022-10-25T15:35:31.283Z,1.60
2022-10-25T15:37:58.254Z,1.50
2022-10-25T15:40:24.897Z,1.47
2022-10-25T15:42:51.489Z,1.97
2022-10-25T15:45:18.100Z,1.47
2022-10-25T15:47:47.299Z,2.00
2022-10-25T15:50:19.620Z,1.50
2022-10-25T15:52:47.022Z,1.97
2022-10-25T15:55:19.583Z,2.60
2022-10-25T15:57:47.107Z,1.97
2022-10-25T16:00:16.094Z,2.17
2022-10-25T16:02:44.052Z,2.33
2022-10-25T16:05:19.498Z,2.93
2022-10-25T16:07:46.278Z,2.50
2022-10-25T16:10:12.997Z,1.70
2022-10-25T16:12:39.814Z,1.80
2022-10-25T16:15:07.798Z,2.63
2022-10-25T16:17:34.384Z,2.00
2022-10-25T16:20:01.058Z,3.70
2022-10-25T16:22:27.697Z,3.20
2022-10-25T16:24:54.321Z,2.30
2022-10-25T16:27:20.963Z,2.40
2022-10-25T16:29:47.803Z,3.43
2022-10-25T16:32:14.467Z,2.50
2022-10-25T16:34:42.641Z,22.50
2022-10-25T16:37:11.745Z,15.97
2022-10-25T16:39:38.825Z,13.80
2022-10-25T16:42:25.388Z,8.03
2022-10-25T16:44:51.970Z,4.43
2022-10-25T16:47:21.352Z,2.37
2022-10-25T16:49:48.393Z,3.80
2022-10-25T16:52:16.345Z,4.50
2022-10-25T16:54:43.184Z,3.27
2022-10-25T16:57:10.307Z,4.03
2022-10-25T16:59:36.957Z,6.87
2022-10-25T17:02:04.622Z,7.67
2022-10-25T17:04:31.346Z,7.60
2022-10-25T17:06:58.060Z,8.93
2022-10-25T17:09:24.755Z,9.20
2022-10-25T17:11:51.381Z,7.53
2022-10-25T17:14:18.020Z,7.40
2022-10-25T17:16:44.911Z,9.90
2022-10-25T17:19:12.737Z,6.70
2022-10-25T17:21:39.922Z,9.43
2022-10-25T17:24:08.486Z,12.07
2022-10-25T17:26:36.265Z,10.27
2022-10-25T17:29:03.426Z,10.57
2022-10-25T17:31:30.001Z,12.37
2022-10-25T17:33:56.944Z,12.57
2022-10-25T17:36:23.659Z,14.10
2022-10-25T17:38:50.733Z,41.70
2022-10-25T17:41:17.835Z,26.80
2022-10-25T17:43:44.451Z,17.80
2022-10-25T17:46:23.493Z,13.13
2022-10-25T17:48:53.771Z,10.30
2022-10-25T17:51:20.324Z,10.10
2022-10-25T17:53:54.391Z,10.20
2022-10-25T17:56:22.734Z,8.27
2022-10-25T17:58:50.302Z,8.77
2022-10-25T18:01:20.396Z,8.70
2022-10-25T18:03:47.821Z,10.13
2022-10-25T18:06:16.774Z,12.90
2022-10-25T18:08:44.793Z,7.40
2022-10-25T18:11:14.101Z,7.03
2022-10-25T18:13:41.627Z,8.43
2022-10-25T18:16:09.754Z,7.23
2022-10-25T18:18:36.820Z,8.07
2022-10-25T18:21:14.381Z,18.10
2022-10-25T18:23:42.309Z,10.47
2022-10-25T18:26:11.833Z,12.20
2022-10-25T18:28:38.897Z,15.67
2022-10-25T18:31:08.332Z,19.60
2022-10-25T18:33:37.215Z,19.90
2022-10-25T18:36:07.162Z,15.83
2022-10-25T18:38:34.653Z,13.40
2022-10-25T18:41:06.288Z,13.23
2022-10-25T18:43:33.712Z,18.90
2022-10-25T18:46:00.500Z,17.17
2022-10-25T18:48:27.300Z,14.40
2022-10-25T18:50:54.120Z,15.97
2022-10-25T18:53:21.358Z,15.50
2022-10-25T18:55:51.294Z,13.60
2022-10-25T18:58:18.004Z,13.73
2022-10-25T19:00:48.303Z,11.93
2022-10-25T19:03:16.127Z,12.87
2022-10-25T19:05:43.390Z,13.47
2022-10-25T19:08:11.314Z,14.50
2022-10-25T19:10:39.551Z,13.00
2022-10-25T19:13:06.727Z,13.13
2022-10-25T19:15:33.724Z,13.60
2022-10-25T19:18:00.480Z,13.67
2022-10-25T19:20:27.284Z,13.13
2022-10-25T19:22:58.778Z,14.40
2022-10-25T19:25:29.659Z,12.63
2022-10-25T19:27:56.867Z,12.30
2022-10-25T19:30:24.490Z,16.07
2022-10-25T19:32:51.666Z,14.00
2022-10-25T19:35:19.202Z,13.40
2022-10-25T19:37:46.080Z,12.13
2022-10-25T19:40:13.565Z,10.33
2022-10-25T19:42:40.274Z,10.37
2022-10-25T19:45:07.322Z,10.70
2022-10-25T19:47:35.813Z,9.97
2022-10-25T19:50:05.583Z,11.00
2022-10-25T19:52:38.371Z,11.97
2022-10-25T19:55:06.396Z,11.00
2022-10-25T19:57:34.292Z,8.93
2022-10-25T20:00:04.340Z,9.87
2022-10-25T20:02:33.522Z,7.20
2022-10-25T20:05:00.395Z,8.93
2022-10-25T20:07:27.814Z,8.47
2022-10-25T20:09:54.440Z,11.10
2022-10-25T20:12:21.137Z,9.57
2022-10-25T20:14:47.813Z,9.50
2022-10-25T20:17:15.475Z,9.67
2022-10-25T20:19:42.289Z,9.57
2022-10-25T20:22:09.063Z,9.90
2022-10-25T20:24:35.814Z,10.00
2022-10-25T20:27:02.503Z,10.43
2022-10-25T20:29:29.262Z,13.20
2022-10-25T20:31:56.149Z,11.50
2022-10-25T20:34:22.968Z,11.60
2022-10-25T20:36:49.819Z,10.70
2022-10-25T20:39:16.908Z,11.40
2022-10-25T20:41:43.849Z,14.50
2022-10-25T20:44:11.080Z,12.70
2022-10-25T20:46:37.880Z,10.47
2022-10-25T20:49:07.300Z,10.13
2022-10-25T20:51:35.002Z,10.90
2022-10-25T20:54:05.213Z,9.53
2022-10-25T20:56:32.027Z,7.93
2022-10-25T20:58:58.652Z,9.20
2022-10-25T21:01:25.460Z,8.20
2022-10-25T21:03:54.027Z,9.27
2022-10-25T21:06:20.616Z,7.83
2022-10-25T21:08:47.237Z,7.97
2022-10-25T21:11:14.135Z,6.23
2022-10-25T21:13:40.976Z,6.30
2022-10-25T21:16:15.586Z,5.07
2022-10-25T21:18:43.687Z,6.00
2022-10-25T21:21:18.962Z,6.47
2022-10-25T21:23:55.156Z,5.67
2022-10-25T21:26:21.848Z,5.77
2022-10-25T21:28:48.526Z,6.50
2022-10-25T21:31:16.536Z,4.80
2022-10-25T21:33:49.873Z,7.03
2022-10-25T21:36:18.769Z,6.43
2022-10-25T21:38:45.745Z,6.13
2022-10-25T21:41:17.721Z,5.80
2022-10-25T21:43:46.490Z,5.40
2022-10-25T21:46:14.907Z,4.60
2022-10-25T21:48:42.088Z,4.30
2022-10-25T21:51:08.732Z,4.17
2022-10-25T21:53:35.585Z,3.80
2022-10-25T21:56:10.586Z,3.87
2022-10-25T21:58:38.773Z,3.70
2022-10-25T22:01:14.800Z,4.30
2022-10-25T22:03:42.112Z,4.77
2022-10-25T22:06:11.393Z,4.27
2022-10-25T22:08:38.182Z,4.70
2022-10-25T22:11:08.207Z,4.20
2022-10-25T22:13:35.302Z,6.13
2022-10-25T22:16:08.128Z,6.20
2022-10-25T22:18:35.154Z,7.50
2022-10-25T22:21:04.888Z,8.03
2022-10-25T22:23:32.316Z,10.23
2022-10-25T22:26:01.621Z,7.67
2022-10-25T22:28:30.042Z,10.77
2022-10-25T22:31:06.195Z,10.30
2022-10-25T22:33:33.732Z,8.50
2022-10-25T22:36:15.840Z,10.17
2022-10-25T22:38:43.033Z,8.23
2022-10-25T22:41:13.021Z,8.27
2022-10-25T22:43:40.620Z,8.97
2022-10-25T22:46:12.014Z,8.60
2022-10-25T22:48:40.430Z,8.70
2022-10-25T22:51:07.401Z,8.67
2022-10-25T22:53:35.856Z,8.53
2022-10-25T22:56:04.437Z,8.80
2022-10-25T22:58:32.967Z,7.73
2022-10-25T23:01:07.617Z,10.17
2022-10-25T23:03:35.985Z,7.53
2022-10-25T23:06:04.610Z,6.87
2022-10-25T23:08:31.520Z,6.40
2022-10-25T23:11:06.266Z,7.27
2022-10-25T23:13:34.883Z,6.53
2022-10-25T23:16:03.339Z,7.10
2022-10-25T23:18:30.581Z,6.57
2022-10-25T23:20:59.193Z,6.70
2022-10-25T23:23:27.047Z,6.10
2022-10-25T23:25:54.629Z,6.13
2022-10-25T23:28:21.384Z,4.40
2022-10-25T23:30:48.824Z,4.73
2022-10-25T23:33:17.042Z,3.33
2022-10-25T23:35:43.596Z,3.00
2022-10-25T23:38:13.920Z,2.77
2022-10-25T23:40:45.208Z,3.87
2022-10-25T23:43:11.852Z,3.23
2022-10-25T23:45:39.860Z,5.50
2022-10-25T23:48:06.466Z,4.37
2022-10-25T23:50:33.065Z,4.17
2022-10-25T23:52:59.682Z,2.57
2022-10-25T23:55:26.249Z,3.07
2022-10-25T23:57:57.709Z,2.37
